Terminal Aerodrome Forecast
Issued by NWS

Home | Current Version | Previous Version | Graphics & Text | Print | Product List | Glossary On
Versions: 1 2 3 4 5 6 7 8 9 10 11 12 13 14 15 16
188
FTUS43 KGRB 011247 AAA
TAFATW
TAF AMD
KATW 011247Z 0113/0212 27006KT P6SM SCT015 OVC090
      TEMPO 0113/0115 6SM -RASN BR BKN015
     FM011500 28010KT P6SM OVC012
     FM011700 28011KT P6SM BKN025
     FM012300 29008KT P6SM BKN035 BKN050=

USA.gov is the U.S. government's official web portal to all federal, state and local government web resources and services.